KGED/GED METAR and TAF weather

Enter ICAO airport designator
Station Type Date Time Source
KGED METAR 2020/07/02 20:54 UTC NOAA

KGED 022054Z AUTO 35006KT 10SM FEW065 32/18 A2984 RMK AO2 SLP105 T03220183 56010


Station Type Date Time Source
KGED Decoded METAR 2020/07/02 20:54 UTC NOAA

GEORGETOWN SUSSEX CO AIRPORT , DE, United States (KGED) 38-41N 075-22W 19M
Jul 02, 2020 - 04:54 PM EDT / 2020.07.02 2054 UTC
Wind: from the N (350 degrees) at 7 MPH (6 KT):0
Visibility: 10 mile(s):0
Sky conditions: mostly clear
Temperature: 90.0 F (32.2 C)
Dew Point: 64.9 F (18.3 C)
Relative Humidity: 43%
Pressure (altimeter): 29.84 in. Hg (1010 hPa)
Pressure tendency: 0.03 inches (1.0 hPa) lower than three hours ago
ob: KGED 022054Z AUTO 35006KT 10SM FEW065 32/18 A2984 RMK AO2 SLP105 T03220183 56010
cycle: 21

Station Type Date Time Source
KGED TAF UTC NOAA

Error!

Example: see airport list